createdAt,value
2023-06-02T00:03:15.794Z,99.90
2023-06-02T00:08:22.522Z,99.90
2023-06-02T00:13:29.610Z,99.90
2023-06-02T00:18:38.862Z,99.90
2023-06-02T00:23:44.785Z,99.90
2023-06-02T00:28:48.258Z,99.90
2023-06-02T00:33:51.897Z,99.90
2023-06-02T00:38:57.594Z,99.90
2023-06-02T00:44:02.270Z,99.90
2023-06-02T00:49:11.774Z,99.90
2023-06-02T00:54:20.173Z,99.90
2023-06-02T00:59:29.560Z,99.90
2023-06-02T01:04:34.570Z,99.90
2023-06-02T01:09:39.660Z,99.90
2023-06-02T01:14:43.448Z,99.90
2023-06-02T01:19:50.605Z,99.90
2023-06-02T01:25:18.102Z,99.90
2023-06-02T01:30:22.132Z,99.90
2023-06-02T01:35:30.272Z,99.90
2023-06-02T01:40:35.578Z,99.90
2023-06-02T01:45:43.133Z,99.90
2023-06-02T01:50:46.699Z,99.90
2023-06-02T01:55:51.548Z,99.90
2023-06-02T02:00:57.671Z,99.90
2023-06-02T02:06:02.648Z,99.90
2023-06-02T02:11:08.733Z,99.90
2023-06-02T02:22:29.385Z,99.90
2023-06-02T02:27:36.661Z,99.90
2023-06-02T02:32:48.246Z,99.90
2023-06-02T02:37:53.962Z,99.90
2023-06-02T02:42:58.890Z,99.90
2023-06-02T02:48:03.313Z,99.90
2023-06-02T02:53:06.848Z,99.90
2023-06-02T02:58:20.051Z,99.90
2023-06-02T03:03:24.598Z,99.90
2023-06-02T03:08:29.246Z,99.90
2023-06-02T03:13:34.302Z,99.90
2023-06-02T03:18:38.096Z,99.90
2023-06-02T03:23:42.186Z,99.90
2023-06-02T03:28:47.278Z,99.90
2023-06-02T03:33:52.928Z,99.90
2023-06-02T03:38:56.691Z,99.90
2023-06-02T03:44:02.359Z,99.90
2023-06-02T03:49:05.885Z,99.90
2023-06-02T03:54:09.279Z,99.90
2023-06-02T03:59:14.160Z,99.90
2023-06-02T04:04:18.709Z,99.90
2023-06-02T04:09:23.179Z,99.90
2023-06-02T04:14:28.891Z,99.90
2023-06-02T04:19:32.503Z,99.90
2023-06-02T04:24:38.586Z,99.90
2023-06-02T04:29:45.029Z,99.90
2023-06-02T04:34:57.006Z,99.90
2023-06-02T04:40:08.431Z,99.90
2023-06-02T04:45:25.353Z,99.90
2023-06-02T04:50:37.969Z,99.90
2023-06-02T04:55:51.350Z,99.90
2023-06-02T05:01:10.113Z,99.90
2023-06-02T05:06:30.388Z,99.90
2023-06-02T05:11:38.609Z,99.90
2023-06-02T05:16:51.036Z,99.90
2023-06-02T05:21:57.753Z,99.90
2023-06-02T05:27:10.550Z,99.90
2023-06-02T05:32:31.493Z,99.90
2023-06-02T05:37:41.521Z,99.90
2023-06-02T05:42:46.828Z,99.90
2023-06-02T05:47:52.959Z,99.90
2023-06-02T05:52:59.088Z,99.90
2023-06-02T05:58:12.794Z,99.90
2023-06-02T06:03:18.986Z,99.90
2023-06-02T06:08:23.960Z,95.70
2023-06-02T06:13:30.187Z,92.30
2023-06-02T06:18:36.912Z,90.90
2023-06-02T06:23:42.567Z,89.20
2023-06-02T06:28:46.361Z,89.00
2023-06-02T06:33:51.437Z,86.10
2023-06-02T06:39:00.665Z,87.10
2023-06-02T06:44:04.232Z,86.40
2023-06-02T06:49:09.175Z,84.50
2023-06-02T06:54:13.938Z,82.40
2023-06-02T06:59:20.604Z,79.70
2023-06-02T07:04:29.063Z,83.20
2023-06-02T07:09:33.526Z,82.60
2023-06-02T07:20:11.979Z,82.90
2023-06-02T07:25:15.526Z,82.40
2023-06-02T07:30:23.048Z,80.60
2023-06-02T07:35:27.854Z,80.00
2023-06-02T07:40:31.394Z,81.40
2023-06-02T07:45:38.893Z,80.00
2023-06-02T07:50:43.602Z,80.90
2023-06-02T07:55:47.168Z,82.40
2023-06-02T08:06:20.453Z,82.20
2023-06-02T08:11:26.511Z,82.10
2023-06-02T08:16:38.539Z,79.60
2023-06-02T08:21:49.264Z,80.10
2023-06-02T08:26:53.564Z,82.70
2023-06-02T08:37:26.503Z,81.70
2023-06-02T08:42:29.900Z,82.70
2023-06-02T08:47:36.259Z,84.70
2023-06-02T08:52:48.081Z,81.80
2023-06-02T08:57:53.894Z,80.50
2023-06-02T09:02:58.366Z,81.80
2023-06-02T09:08:14.331Z,81.70
2023-06-02T09:13:31.558Z,84.00
2023-06-02T09:18:34.922Z,81.10
2023-06-02T09:23:56.668Z,83.10
2023-06-02T09:29:10.492Z,83.50
2023-06-02T09:34:16.508Z,83.90
2023-06-02T09:39:37.197Z,84.90
2023-06-02T09:44:40.987Z,84.10
2023-06-02T09:55:14.321Z,84.50
2023-06-02T10:00:19.229Z,83.80
2023-06-02T10:05:23.955Z,84.20
2023-06-02T10:10:40.632Z,87.00
2023-06-02T10:16:19.458Z,90.40
2023-06-02T10:21:32.698Z,88.50
2023-06-02T10:26:59.153Z,90.70
2023-06-02T10:32:03.469Z,92.20
2023-06-02T10:37:21.496Z,91.30
2023-06-02T10:42:27.638Z,91.00
2023-06-02T10:47:42.292Z,91.20
2023-06-02T10:53:12.365Z,90.50
2023-06-02T10:58:17.261Z,92.00
2023-06-02T11:03:44.714Z,91.20
2023-06-02T11:08:56.250Z,91.90
2023-06-02T11:14:06.851Z,92.30
2023-06-02T11:19:11.323Z,90.90
2023-06-02T11:24:23.840Z,93.70
2023-06-02T11:29:31.291Z,92.40
2023-06-02T11:34:36.312Z,92.60
2023-06-02T11:39:54.814Z,91.90
2023-06-02T11:45:00.760Z,92.50
2023-06-02T11:50:05.454Z,91.10
2023-06-02T11:55:12.094Z,92.60
2023-06-02T12:00:26.296Z,91.50
2023-06-02T12:05:38.754Z,92.00
2023-06-02T12:10:46.322Z,91.80
2023-06-02T12:15:52.073Z,90.80
2023-06-02T12:21:02.407Z,92.30
2023-06-02T12:26:06.799Z,90.90
2023-06-02T12:31:11.714Z,90.50
2023-06-02T12:36:15.680Z,90.20
2023-06-02T12:41:43.490Z,91.10
2023-06-02T12:46:50.892Z,91.30
2023-06-02T12:51:56.030Z,91.00
2023-06-02T12:57:02.377Z,90.40
2023-06-02T13:02:10.021Z,91.20
2023-06-02T13:07:13.500Z,92.70
2023-06-02T13:12:18.499Z,90.00
2023-06-02T13:17:25.517Z,91.00
2023-06-02T13:22:31.939Z,90.10
2023-06-02T13:32:46.447Z,89.20
2023-06-02T13:37:49.957Z,89.10
2023-06-02T13:42:55.595Z,89.70
2023-06-02T13:48:04.237Z,91.40
2023-06-02T13:53:08.123Z,89.60
2023-06-02T13:58:13.676Z,89.20
2023-06-02T14:03:19.203Z,88.20
2023-06-02T14:08:22.980Z,88.90
2023-06-02T14:13:27.940Z,89.50
2023-06-02T14:18:32.727Z,88.80
2023-06-02T14:23:36.238Z,90.50
2023-06-02T14:28:41.069Z,90.00
2023-06-02T14:33:45.983Z,89.90
2023-06-02T14:38:53.816Z,90.20
2023-06-02T14:43:58.303Z,90.10
2023-06-02T14:49:05.860Z,90.20
2023-06-02T14:54:10.216Z,90.90
2023-06-02T14:59:21.769Z,90.70
2023-06-02T15:04:26.764Z,90.60
2023-06-02T15:09:30.198Z,90.60
2023-06-02T15:14:33.652Z,91.50
2023-06-02T15:19:38.604Z,92.10
2023-06-02T15:24:44.615Z,91.40
2023-06-02T15:29:53.129Z,91.60
2023-06-02T15:34:58.199Z,91.70
2023-06-02T15:40:02.781Z,91.80
2023-06-02T15:45:07.163Z,91.10
2023-06-02T15:50:12.620Z,91.30
2023-06-02T15:55:16.218Z,91.20
2023-06-02T16:00:22.554Z,91.20
2023-06-02T16:05:28.838Z,91.30
2023-06-02T16:10:32.311Z,91.90
2023-06-02T16:15:35.751Z,91.80
2023-06-02T16:20:40.571Z,91.40
2023-06-02T16:25:44.178Z,91.00
2023-06-02T16:30:48.681Z,90.90
2023-06-02T16:35:53.396Z,91.70
2023-06-02T16:40:56.930Z,90.90
2023-06-02T16:46:00.782Z,92.00
2023-06-02T16:51:07.216Z,92.00
2023-06-02T16:56:11.156Z,91.90
2023-06-02T17:01:14.764Z,92.10
2023-06-02T17:06:26.411Z,92.20
2023-06-02T17:11:31.861Z,92.70
2023-06-02T17:16:35.679Z,93.00
2023-06-02T17:21:40.673Z,92.60
2023-06-02T17:27:04.168Z,93.10
2023-06-02T17:32:15.370Z,93.20
2023-06-02T17:37:31.858Z,93.80
2023-06-02T17:42:43.372Z,93.80
2023-06-02T17:47:48.431Z,94.50
2023-06-02T17:52:53.613Z,95.00
2023-06-02T17:57:59.510Z,94.80
2023-06-02T18:03:06.153Z,95.60
2023-06-02T18:08:12.818Z,95.40
2023-06-02T18:13:16.385Z,95.60
2023-06-02T18:18:20.431Z,96.10
2023-06-02T18:23:25.417Z,96.00
2023-06-02T18:28:29.896Z,96.50
2023-06-02T18:33:34.199Z,96.90
2023-06-02T18:38:43.808Z,97.20
2023-06-02T18:43:47.504Z,96.70
2023-06-02T18:48:51.051Z,96.90
2023-06-02T18:53:56.171Z,97.30
2023-06-02T18:58:59.831Z,97.90
2023-06-02T19:04:08.082Z,98.20
2023-06-02T19:09:13.115Z,98.70
2023-06-02T19:14:17.899Z,99.10
2023-06-02T19:19:22.477Z,99.30
2023-06-02T19:24:29.525Z,99.60
2023-06-02T19:29:34.159Z,99.90
2023-06-02T19:34:43.708Z,99.90
2023-06-02T19:39:51.915Z,99.90
2023-06-02T19:44:55.312Z,99.90
2023-06-02T19:49:59.012Z,99.90
2023-06-02T19:55:06.071Z,99.90
2023-06-02T20:00:15.033Z,99.90
2023-06-02T20:05:22.469Z,99.90
2023-06-02T20:10:28.034Z,99.90
2023-06-02T20:15:39.463Z,99.90
2023-06-02T20:20:44.217Z,99.90
2023-06-02T20:25:49.384Z,99.90
2023-06-02T20:31:11.000Z,99.90
2023-06-02T20:36:14.612Z,99.90
2023-06-02T20:41:22.892Z,99.90
2023-06-02T20:46:27.708Z,99.90
2023-06-02T20:51:32.003Z,99.90
2023-06-02T20:56:37.992Z,99.90
2023-06-02T21:01:42.879Z,99.90
2023-06-02T21:06:47.715Z,99.90
2023-06-02T21:11:53.692Z,99.90
2023-06-02T21:17:00.342Z,99.90
2023-06-02T21:22:04.419Z,99.90
2023-06-02T21:27:54.574Z,99.90
2023-06-02T21:39:26.365Z,99.90
2023-06-02T21:44:36.451Z,99.90
2023-06-02T21:49:45.809Z,99.90
2023-06-02T21:55:14.980Z,99.90
2023-06-02T22:00:33.888Z,99.90
2023-06-02T22:11:24.626Z,99.90
2023-06-02T22:17:08.436Z,99.90
2023-06-02T22:32:45.398Z,99.90
2023-06-02T22:38:05.144Z,99.90
2023-06-02T22:43:08.910Z,99.90
2023-06-02T22:48:14.697Z,99.90
2023-06-02T22:53:26.509Z,99.90
2023-06-02T22:58:31.628Z,99.90
2023-06-02T23:03:37.146Z,99.90
2023-06-02T23:08:41.731Z,99.90
2023-06-02T23:13:46.342Z,99.90
2023-06-02T23:18:51.291Z,99.90
2023-06-02T23:23:56.121Z,99.90
2023-06-02T23:28:59.515Z,99.90
2023-06-02T23:34:04.766Z,99.90
2023-06-02T23:39:09.503Z,99.90
2023-06-02T23:44:15.131Z,99.90
2023-06-02T23:49:21.921Z,99.90
2023-06-02T23:54:27.989Z,99.90
2023-06-02T23:59:32.304Z,99.90
